sensor_id;sensor_type;location;lat;lon;timestamp;pressure;altitude;pressure_sealevel;temperature;humidity
8416;BME280;4245;42.120;24.732;2022-12-18T00:00:11;99898.44;;;10.75;100.00
8416;BME280;4245;42.120;24.732;2022-12-18T00:02:38;99889.09;;;10.84;100.00
8416;BME280;4245;42.120;24.732;2022-12-18T00:05:07;99888.31;;;10.68;100.00
8416;BME280;4245;42.120;24.732;2022-12-18T00:07:35;99902.22;;;10.57;100.00
8416;BME280;4245;42.120;24.732;2022-12-18T00:10:02;99915.16;;;10.77;100.00
8416;BME280;4245;42.120;24.732;2022-12-18T00:12:29;99914.22;;;10.64;100.00
8416;BME280;4245;42.120;24.732;2022-12-18T00:14:56;99919.09;;;10.56;100.00
8416;BME280;4245;42.120;24.732;2022-12-18T00:17:23;99939.03;;;10.49;100.00
8416;BME280;4245;42.120;24.732;2022-12-18T00:19:50;99944.34;;;10.49;100.00
8416;BME280;4245;42.120;24.732;2022-12-18T00:22:18;99945.66;;;10.56;100.00
8416;BME280;4245;42.120;24.732;2022-12-18T00:24:44;99945.41;;;10.61;100.00
8416;BME280;4245;42.120;24.732;2022-12-18T00:27:11;99955.34;;;10.57;100.00
8416;BME280;4245;42.120;24.732;2022-12-18T00:29:41;99955.44;;;10.56;100.00
8416;BME280;4245;42.120;24.732;2022-12-18T00:32:08;99953.28;;;10.62;100.00
8416;BME280;4245;42.120;24.732;2022-12-18T00:34:35;99949.09;;;10.58;100.00
8416;BME280;4245;42.120;24.732;2022-12-18T00:37:01;99943.22;;;10.53;100.00
8416;BME280;4245;42.120;24.732;2022-12-18T00:39:30;99962.66;;;10.54;100.00
8416;BME280;4245;42.120;24.732;2022-12-18T00:41:56;99973.69;;;10.62;100.00
8416;BME280;4245;42.120;24.732;2022-12-18T00:44:40;99977.06;;;10.50;100.00
8416;BME280;4245;42.120;24.732;2022-12-18T00:47:07;99982.22;;;10.37;100.00
8416;BME280;4245;42.120;24.732;2022-12-18T00:49:34;99989.88;;;10.27;100.00
8416;BME280;4245;42.120;24.732;2022-12-18T00:52:01;99989.09;;;10.10;100.00
8416;BME280;4245;42.120;24.732;2022-12-18T00:54:27;99996.41;;;10.06;100.00
8416;BME280;4245;42.120;24.732;2022-12-18T00:56:56;99996.66;;;10.17;100.00
8416;BME280;4245;42.120;24.732;2022-12-18T00:59:22;99987.84;;;10.01;100.00
8416;BME280;4245;42.120;24.732;2022-12-18T01:01:49;99987.22;;;9.96;100.00
8416;BME280;4245;42.120;24.732;2022-12-18T01:04:16;99982.59;;;9.84;100.00
8416;BME280;4245;42.120;24.732;2022-12-18T01:06:42;99976.03;;;9.91;100.00
8416;BME280;4245;42.120;24.732;2022-12-18T01:09:09;99985.59;;;9.93;100.00
8416;BME280;4245;42.120;24.732;2022-12-18T01:11:36;99982.44;;;9.87;100.00
8416;BME280;4245;42.120;24.732;2022-12-18T01:14:04;99980.66;;;9.87;100.00
8416;BME280;4245;42.120;24.732;2022-12-18T01:16:31;99980.53;;;9.89;100.00
8416;BME280;4245;42.120;24.732;2022-12-18T01:18:58;99976.09;;;9.89;100.00
8416;BME280;4245;42.120;24.732;2022-12-18T01:21:25;99979.34;;;9.94;100.00
8416;BME280;4245;42.120;24.732;2022-12-18T01:23:54;99984.47;;;10.13;100.00
8416;BME280;4245;42.120;24.732;2022-12-18T01:26:21;99980.81;;;10.16;100.00
8416;BME280;4245;42.120;24.732;2022-12-18T01:28:48;99982.09;;;10.24;100.00
8416;BME280;4245;42.120;24.732;2022-12-18T01:31:19;99976.44;;;10.30;100.00
8416;BME280;4245;42.120;24.732;2022-12-18T01:33:49;99969.66;;;10.40;100.00
8416;BME280;4245;42.120;24.732;2022-12-18T01:36:19;99971.19;;;10.44;100.00
8416;BME280;4245;42.120;24.732;2022-12-18T01:38:46;99977.16;;;10.48;100.00
8416;BME280;4245;42.120;24.732;2022-12-18T01:41:14;99979.34;;;10.56;100.00
8416;BME280;4245;42.120;24.732;2022-12-18T01:43:50;99977.84;;;10.66;100.00
8416;BME280;4245;42.120;24.732;2022-12-18T01:46:20;99980.53;;;10.66;100.00
8416;BME280;4245;42.120;24.732;2022-12-18T01:48:50;99979.44;;;10.84;100.00
8416;BME280;4245;42.120;24.732;2022-12-18T01:51:19;99979.06;;;10.90;100.00
8416;BME280;4245;42.120;24.732;2022-12-18T01:53:47;99982.84;;;10.86;100.00
8416;BME280;4245;42.120;24.732;2022-12-18T01:56:16;99984.19;;;10.79;100.00
8416;BME280;4245;42.120;24.732;2022-12-18T01:58:51;99979.88;;;10.76;100.00
8416;BME280;4245;42.120;24.732;2022-12-18T02:01:21;99976.78;;;10.84;100.00
8416;BME280;4245;42.120;24.732;2022-12-18T02:03:49;99981.13;;;10.85;100.00
8416;BME280;4245;42.120;24.732;2022-12-18T02:06:21;99990.25;;;10.95;100.00
8416;BME280;4245;42.120;24.732;2022-12-18T02:09:02;99996.72;;;11.05;100.00
8416;BME280;4245;42.120;24.732;2022-12-18T02:11:40;99997.03;;;11.01;100.00
8416;BME280;4245;42.120;24.732;2022-12-18T02:14:18;99997.84;;;10.87;100.00
8416;BME280;4245;42.120;24.732;2022-12-18T02:16:52;99996.16;;;11.00;100.00
8416;BME280;4245;42.120;24.732;2022-12-18T02:19:39;100008.41;;;10.88;100.00
8416;BME280;4245;42.120;24.732;2022-12-18T02:22:21;100009.16;;;11.05;100.00
8416;BME280;4245;42.120;24.732;2022-12-18T02:25:00;100009.09;;;11.06;100.00
8416;BME280;4245;42.120;24.732;2022-12-18T02:27:33;100010.31;;;11.01;100.00
8416;BME280;4245;42.120;24.732;2022-12-18T02:30:04;100014.09;;;10.97;100.00
8416;BME280;4245;42.120;24.732;2022-12-18T02:32:34;100015.91;;;10.96;100.00
8416;BME280;4245;42.120;24.732;2022-12-18T02:35:04;100007.56;;;11.02;100.00
8416;BME280;4245;42.120;24.732;2022-12-18T02:37:34;100010.59;;;11.10;100.00
8416;BME280;4245;42.120;24.732;2022-12-18T02:40:03;99999.47;;;11.04;100.00
8416;BME280;4245;42.120;24.732;2022-12-18T02:42:30;99999.69;;;11.01;100.00
8416;BME280;4245;42.120;24.732;2022-12-18T02:45:00;99997.69;;;11.04;100.00
8416;BME280;4245;42.120;24.732;2022-12-18T02:47:29;99995.03;;;11.04;100.00
8416;BME280;4245;42.120;24.732;2022-12-18T02:50:03;99997.59;;;11.06;100.00
8416;BME280;4245;42.120;24.732;2022-12-18T02:52:37;99994.84;;;11.07;100.00
8416;BME280;4245;42.120;24.732;2022-12-18T02:55:15;100005.50;;;11.07;100.00
8416;BME280;4245;42.120;24.732;2022-12-18T02:57:47;100002.34;;;11.01;100.00
8416;BME280;4245;42.120;24.732;2022-12-18T03:00:19;100000.63;;;11.00;100.00
8416;BME280;4245;42.120;24.732;2022-12-18T03:02:50;100008.50;;;11.01;100.00
8416;BME280;4245;42.120;24.732;2022-12-18T03:05:23;100011.53;;;10.95;100.00
8416;BME280;4245;42.120;24.732;2022-12-18T03:07:57;100007.47;;;11.04;100.00
8416;BME280;4245;42.120;24.732;2022-12-18T03:10:27;100011.66;;;11.08;100.00
8416;BME280;4245;42.120;24.732;2022-12-18T03:12:59;100002.53;;;10.98;100.00
8416;BME280;4245;42.120;24.732;2022-12-18T03:15:30;100014.31;;;10.94;100.00
8416;BME280;4245;42.120;24.732;2022-12-18T03:18:02;100015.91;;;10.96;100.00
8416;BME280;4245;42.120;24.732;2022-12-18T03:20:33;100016.97;;;10.94;100.00
8416;BME280;4245;42.120;24.732;2022-12-18T03:23:04;100017.53;;;10.99;100.00
8416;BME280;4245;42.120;24.732;2022-12-18T03:25:35;100017.63;;;10.97;100.00
8416;BME280;4245;42.120;24.732;2022-12-18T03:28:07;100019.63;;;10.94;100.00
8416;BME280;4245;42.120;24.732;2022-12-18T03:30:39;100034.25;;;11.01;100.00
8416;BME280;4245;42.120;24.732;2022-12-18T03:33:09;100033.28;;;11.02;100.00
8416;BME280;4245;42.120;24.732;2022-12-18T03:35:39;100035.28;;;10.98;100.00
8416;BME280;4245;42.120;24.732;2022-12-18T03:38:09;100041.41;;;10.84;100.00
8416;BME280;4245;42.120;24.732;2022-12-18T03:40:43;100030.03;;;10.82;100.00
8416;BME280;4245;42.120;24.732;2022-12-18T03:43:16;100036.47;;;10.78;100.00
8416;BME280;4245;42.120;24.732;2022-12-18T03:45:51;100048.53;;;10.84;100.00
8416;BME280;4245;42.120;24.732;2022-12-18T03:48:27;100060.50;;;10.91;100.00
8416;BME280;4245;42.120;24.732;2022-12-18T03:50:57;100063.94;;;10.93;100.00
8416;BME280;4245;42.120;24.732;2022-12-18T03:53:32;100069.59;;;11.17;100.00
8416;BME280;4245;42.120;24.732;2022-12-18T03:56:01;100072.34;;;11.15;100.00
8416;BME280;4245;42.120;24.732;2022-12-18T03:58:31;100075.38;;;11.09;100.00
8416;BME280;4245;42.120;24.732;2022-12-18T04:01:03;100078.81;;;11.11;100.00
8416;BME280;4245;42.120;24.732;2022-12-18T04:03:32;100077.44;;;11.04;100.00
8416;BME280;4245;42.120;24.732;2022-12-18T04:06:00;100081.22;;;11.00;100.00
8416;BME280;4245;42.120;24.732;2022-12-18T04:08:28;100083.34;;;11.09;100.00
8416;BME280;4245;42.120;24.732;2022-12-18T04:10:55;100082.94;;;11.01;100.00
8416;BME280;4245;42.120;24.732;2022-12-18T04:13:22;100086.91;;;10.94;100.00
8416;BME280;4245;42.120;24.732;2022-12-18T04:15:49;100092.09;;;11.11;100.00
8416;BME280;4245;42.120;24.732;2022-12-18T04:18:18;100096.47;;;11.12;100.00
8416;BME280;4245;42.120;24.732;2022-12-18T04:20:45;100098.34;;;11.10;100.00
8416;BME280;4245;42.120;24.732;2022-12-18T04:23:12;100092.59;;;11.18;100.00
8416;BME280;4245;42.120;24.732;2022-12-18T04:25:38;100092.09;;;11.11;100.00
8416;BME280;4245;42.120;24.732;2022-12-18T04:28:05;100094.41;;;11.17;100.00
8416;BME280;4245;42.120;24.732;2022-12-18T04:30:32;100101.59;;;11.15;100.00
8416;BME280;4245;42.120;24.732;2022-12-18T04:32:59;100104.59;;;11.09;100.00
8416;BME280;4245;42.120;24.732;2022-12-18T04:35:27;100107.47;;;11.06;100.00
8416;BME280;4245;42.120;24.732;2022-12-18T04:37:54;100116.66;;;11.01;100.00
8416;BME280;4245;42.120;24.732;2022-12-18T04:40:21;100112.28;;;11.00;100.00
8416;BME280;4245;42.120;24.732;2022-12-18T04:42:47;100111.53;;;10.98;100.00
8416;BME280;4245;42.120;24.732;2022-12-18T04:45:14;100117.69;;;10.98;100.00
8416;BME280;4245;42.120;24.732;2022-12-18T04:47:41;100126.44;;;10.84;100.00
8416;BME280;4245;42.120;24.732;2022-12-18T04:50:08;100132.81;;;10.82;100.00
8416;BME280;4245;42.120;24.732;2022-12-18T04:52:36;100126.81;;;10.78;100.00
8416;BME280;4245;42.120;24.732;2022-12-18T04:55:03;100136.75;;;10.75;100.00
8416;BME280;4245;42.120;24.732;2022-12-18T04:57:30;100144.38;;;10.65;100.00
8416;BME280;4245;42.120;24.732;2022-12-18T04:59:57;100146.22;;;10.65;100.00
8416;BME280;4245;42.120;24.732;2022-12-18T05:02:24;100146.63;;;10.73;100.00
8416;BME280;4245;42.120;24.732;2022-12-18T05:04:50;100164.72;;;10.66;100.00
8416;BME280;4245;42.120;24.732;2022-12-18T05:07:17;100164.44;;;10.71;100.00
8416;BME280;4245;42.120;24.732;2022-12-18T05:09:45;100162.91;;;10.67;100.00
8416;BME280;4245;42.120;24.732;2022-12-18T05:12:12;100161.38;;;10.63;100.00
8416;BME280;4245;42.120;24.732;2022-12-18T05:14:39;100160.59;;;10.61;100.00
8416;BME280;4245;42.120;24.732;2022-12-18T05:17:06;100166.88;;;10.60;100.00
8416;BME280;4245;42.120;24.732;2022-12-18T05:19:32;100173.72;;;10.64;100.00
8416;BME280;4245;42.120;24.732;2022-12-18T05:21:59;100171.34;;;10.59;100.00
8416;BME280;4245;42.120;24.732;2022-12-18T05:24:26;100174.66;;;10.63;100.00
8416;BME280;4245;42.120;24.732;2022-12-18T05:26:54;100191.53;;;10.77;100.00
8416;BME280;4245;42.120;24.732;2022-12-18T05:29:21;100185.56;;;10.74;100.00
8416;BME280;4245;42.120;24.732;2022-12-18T05:31:48;100201.13;;;10.80;100.00
8416;BME280;4245;42.120;24.732;2022-12-18T05:34:15;100205.78;;;10.76;100.00
8416;BME280;4245;42.120;24.732;2022-12-18T05:36:42;100211.59;;;10.83;100.00
8416;BME280;4245;42.120;24.732;2022-12-18T05:39:09;100212.47;;;10.68;100.00
8416;BME280;4245;42.120;24.732;2022-12-18T05:41:35;100220.63;;;10.65;100.00
8416;BME280;4245;42.120;24.732;2022-12-18T05:44:04;100215.31;;;10.65;100.00
8416;BME280;4245;42.120;24.732;2022-12-18T05:46:31;100220.44;;;10.68;100.00
8416;BME280;4245;42.120;24.732;2022-12-18T05:48:59;100225.50;;;10.72;100.00
8416;BME280;4245;42.120;24.732;2022-12-18T05:51:26;100235.84;;;10.61;100.00
8416;BME280;4245;42.120;24.732;2022-12-18T05:53:53;100239.91;;;10.68;100.00
8416;BME280;4245;42.120;24.732;2022-12-18T05:56:21;100241.25;;;10.75;100.00
8416;BME280;4245;42.120;24.732;2022-12-18T05:58:51;100243.31;;;10.70;100.00
8416;BME280;4245;42.120;24.732;2022-12-18T06:01:22;100239.38;;;10.77;100.00
8416;BME280;4245;42.120;24.732;2022-12-18T06:03:49;100245.38;;;10.81;100.00
8416;BME280;4245;42.120;24.732;2022-12-18T06:06:18;100253.59;;;10.76;100.00
8416;BME280;4245;42.120;24.732;2022-12-18T06:08:45;100251.03;;;10.75;100.00
8416;BME280;4245;42.120;24.732;2022-12-18T06:11:12;100249.47;;;10.71;100.00
8416;BME280;4245;42.120;24.732;2022-12-18T06:13:39;100258.06;;;10.76;100.00
8416;BME280;4245;42.120;24.732;2022-12-18T06:16:07;100254.91;;;10.69;100.00
8416;BME280;4245;42.120;24.732;2022-12-18T06:18:38;100258.75;;;10.64;100.00
8416;BME280;4245;42.120;24.732;2022-12-18T06:21:05;100263.88;;;10.67;100.00
8416;BME280;4245;42.120;24.732;2022-12-18T06:23:32;100274.69;;;10.95;100.00
8416;BME280;4245;42.120;24.732;2022-12-18T06:26:02;100275.75;;;10.93;100.00
8416;BME280;4245;42.120;24.732;2022-12-18T06:28:29;100270.09;;;10.83;100.00
8416;BME280;4245;42.120;24.732;2022-12-18T06:30:56;100272.28;;;10.75;100.00
8416;BME280;4245;42.120;24.732;2022-12-18T06:33:26;100281.66;;;10.82;100.00
8416;BME280;4245;42.120;24.732;2022-12-18T06:35:58;100284.91;;;10.87;100.00
8416;BME280;4245;42.120;24.732;2022-12-18T06:38:25;100289.47;;;11.01;100.00
8416;BME280;4245;42.120;24.732;2022-12-18T06:40:52;100301.28;;;10.95;100.00
8416;BME280;4245;42.120;24.732;2022-12-18T06:43:19;100310.22;;;11.10;100.00
8416;BME280;4245;42.120;24.732;2022-12-18T06:45:46;100319.38;;;11.04;100.00
8416;BME280;4245;42.120;24.732;2022-12-18T06:48:17;100316.47;;;10.93;100.00
8416;BME280;4245;42.120;24.732;2022-12-18T06:50:45;100327.34;;;11.04;100.00
8416;BME280;4245;42.120;24.732;2022-12-18T06:53:14;100327.22;;;11.07;100.00
8416;BME280;4245;42.120;24.732;2022-12-18T06:55:41;100324.47;;;10.93;100.00
8416;BME280;4245;42.120;24.732;2022-12-18T06:58:07;100327.03;;;11.10;100.00
8416;BME280;4245;42.120;24.732;2022-12-18T07:00:34;100331.06;;;11.02;100.00
8416;BME280;4245;42.120;24.732;2022-12-18T07:03:01;100334.56;;;11.02;100.00
8416;BME280;4245;42.120;24.732;2022-12-18T07:05:28;100339.72;;;11.05;100.00
8416;BME280;4245;42.120;24.732;2022-12-18T07:07:55;100343.84;;;11.11;100.00
8416;BME280;4245;42.120;24.732;2022-12-18T07:10:23;100343.41;;;11.03;100.00
8416;BME280;4245;42.120;24.732;2022-12-18T07:12:50;100342.47;;;11.19;100.00
8416;BME280;4245;42.120;24.732;2022-12-18T07:15:17;100347.97;;;11.16;100.00
8416;BME280;4245;42.120;24.732;2022-12-18T07:17:44;100352.59;;;11.13;100.00
8416;BME280;4245;42.120;24.732;2022-12-18T07:20:11;100345.97;;;11.04;100.00
8416;BME280;4245;42.120;24.732;2022-12-18T07:22:38;100352.69;;;11.11;100.00
8416;BME280;4245;42.120;24.732;2022-12-18T07:25:05;100355.63;;;11.22;100.00
8416;BME280;4245;42.120;24.732;2022-12-18T07:27:34;100362.88;;;11.19;100.00
8416;BME280;4245;42.120;24.732;2022-12-18T07:30:01;100363.06;;;11.16;100.00
8416;BME280;4245;42.120;24.732;2022-12-18T07:32:27;100379.59;;;11.05;100.00
8416;BME280;4245;42.120;24.732;2022-12-18T07:34:54;100370.25;;;10.98;100.00
8416;BME280;4245;42.120;24.732;2022-12-18T07:37:21;100370.59;;;11.23;100.00
8416;BME280;4245;42.120;24.732;2022-12-18T07:39:48;100369.16;;;11.18;100.00
8416;BME280;4245;42.120;24.732;2022-12-18T07:42:15;100380.38;;;11.07;100.00
8416;BME280;4245;42.120;24.732;2022-12-18T07:47:35;100389.88;;;10.96;100.00
8416;BME280;4245;42.120;24.732;2022-12-18T07:50:03;100386.03;;;11.01;100.00
8416;BME280;4245;42.120;24.732;2022-12-18T07:52:30;100393.41;;;10.96;100.00
8416;BME280;4245;42.120;24.732;2022-12-18T07:54:57;100395.41;;;11.08;100.00
8416;BME280;4245;42.120;24.732;2022-12-18T07:57:28;100402.28;;;11.12;100.00
8416;BME280;4245;42.120;24.732;2022-12-18T07:59:54;100404.00;;;11.13;100.00
8416;BME280;4245;42.120;24.732;2022-12-18T08:02:21;100405.31;;;11.05;100.00
8416;BME280;4245;42.120;24.732;2022-12-18T08:04:49;100415.28;;;11.01;100.00
8416;BME280;4245;42.120;24.732;2022-12-18T08:07:16;100413.28;;;10.89;100.00
8416;BME280;4245;42.120;24.732;2022-12-18T08:09:43;100413.81;;;10.96;100.00
8416;BME280;4245;42.120;24.732;2022-12-18T08:12:10;100420.34;;;11.06;100.00
8416;BME280;4245;42.120;24.732;2022-12-18T08:14:36;100419.34;;;11.08;100.00
8416;BME280;4245;42.120;24.732;2022-12-18T08:17:05;100430.59;;;11.13;100.00
8416;BME280;4245;42.120;24.732;2022-12-18T08:19:32;100431.16;;;11.18;100.00
8416;BME280;4245;42.120;24.732;2022-12-18T08:22:00;100434.94;;;11.14;100.00
8416;BME280;4245;42.120;24.732;2022-12-18T08:24:26;100442.84;;;11.16;100.00
8416;BME280;4245;42.120;24.732;2022-12-18T08:26:54;100443.19;;;11.25;100.00
8416;BME280;4245;42.120;24.732;2022-12-18T08:29:22;100449.31;;;11.27;100.00
8416;BME280;4245;42.120;24.732;2022-12-18T08:31:50;100447.25;;;11.32;100.00
8416;BME280;4245;42.120;24.732;2022-12-18T08:34:17;100456.00;;;11.34;100.00
8416;BME280;4245;42.120;24.732;2022-12-18T08:36:45;100447.00;;;11.37;100.00
8416;BME280;4245;42.120;24.732;2022-12-18T08:39:15;100445.03;;;11.41;100.00
8416;BME280;4245;42.120;24.732;2022-12-18T08:41:44;100440.38;;;11.44;100.00
8416;BME280;4245;42.120;24.732;2022-12-18T08:44:35;100429.94;;;11.57;100.00
8416;BME280;4245;42.120;24.732;2022-12-18T08:47:04;100432.28;;;11.79;100.00
8416;BME280;4245;42.120;24.732;2022-12-18T08:49:31;100432.78;;;11.85;100.00
8416;BME280;4245;42.120;24.732;2022-12-18T08:51:58;100435.00;;;11.77;100.00
8416;BME280;4245;42.120;24.732;2022-12-18T08:54:26;100430.72;;;12.20;100.00
8416;BME280;4245;42.120;24.732;2022-12-18T08:56:53;100428.22;;;12.62;100.00
8416;BME280;4245;42.120;24.732;2022-12-18T08:59:20;100432.97;;;12.72;100.00
8416;BME280;4245;42.120;24.732;2022-12-18T09:01:47;100435.44;;;12.75;100.00
8416;BME280;4245;42.120;24.732;2022-12-18T09:04:14;100418.22;;;12.36;100.00
8416;BME280;4245;42.120;24.732;2022-12-18T09:06:40;100419.69;;;12.42;100.00
8416;BME280;4245;42.120;24.732;2022-12-18T09:09:09;100425.84;;;12.28;100.00
8416;BME280;4245;42.120;24.732;2022-12-18T09:11:37;100422.16;;;12.45;100.00
8416;BME280;4245;42.120;24.732;2022-12-18T09:14:04;100419.53;;;12.15;100.00
8416;BME280;4245;42.120;24.732;2022-12-18T09:16:31;100423.91;;;12.30;100.00
8416;BME280;4245;42.120;24.732;2022-12-18T09:19:01;100430.81;;;12.34;100.00
8416;BME280;4245;42.120;24.732;2022-12-18T09:21:29;100434.72;;;12.43;100.00
8416;BME280;4245;42.120;24.732;2022-12-18T09:23:57;100433.16;;;12.69;100.00
8416;BME280;4245;42.120;24.732;2022-12-18T09:26:25;100430.78;;;12.78;100.00
8416;BME280;4245;42.120;24.732;2022-12-18T09:28:53;100423.59;;;12.50;100.00
8416;BME280;4245;42.120;24.732;2022-12-18T09:31:22;100430.84;;;12.48;100.00
8416;BME280;4245;42.120;24.732;2022-12-18T09:33:49;100428.84;;;12.22;100.00
8416;BME280;4245;42.120;24.732;2022-12-18T09:36:17;100429.31;;;12.14;100.00
8416;BME280;4245;42.120;24.732;2022-12-18T09:38:45;100434.19;;;12.06;100.00
8416;BME280;4245;42.120;24.732;2022-12-18T09:41:33;100440.59;;;12.04;100.00
8416;BME280;4245;42.120;24.732;2022-12-18T09:44:11;100433.06;;;12.10;100.00
8416;BME280;4245;42.120;24.732;2022-12-18T09:46:44;100432.84;;;11.99;100.00
8416;BME280;4245;42.120;24.732;2022-12-18T09:49:15;100432.00;;;11.83;100.00
8416;BME280;4245;42.120;24.732;2022-12-18T09:51:45;100424.97;;;11.82;100.00
8416;BME280;4245;42.120;24.732;2022-12-18T09:54:16;100427.81;;;11.79;100.00
8416;BME280;4245;42.120;24.732;2022-12-18T09:56:47;100419.03;;;11.77;100.00
8416;BME280;4245;42.120;24.732;2022-12-18T09:59:21;100425.81;;;11.83;100.00
8416;BME280;4245;42.120;24.732;2022-12-18T10:01:49;100427.53;;;11.84;100.00
8416;BME280;4245;42.120;24.732;2022-12-18T10:04:16;100421.44;;;11.82;100.00
8416;BME280;4245;42.120;24.732;2022-12-18T10:06:46;100422.81;;;11.89;100.00
8416;BME280;4245;42.120;24.732;2022-12-18T10:09:24;100420.59;;;11.81;100.00
8416;BME280;4245;42.120;24.732;2022-12-18T10:12:02;100440.19;;;11.80;100.00
8416;BME280;4245;42.120;24.732;2022-12-18T10:14:43;100429.94;;;11.72;100.00
8416;BME280;4245;42.120;24.732;2022-12-18T10:17:20;100431.81;;;11.70;100.00
8416;BME280;4245;42.120;24.732;2022-12-18T10:19:53;100434.38;;;11.72;100.00
8416;BME280;4245;42.120;24.732;2022-12-18T10:22:30;100429.00;;;11.73;100.00
8416;BME280;4245;42.120;24.732;2022-12-18T10:25:05;100428.06;;;11.74;100.00
8416;BME280;4245;42.120;24.732;2022-12-18T10:27:39;100432.94;;;11.82;100.00
8416;BME280;4245;42.120;24.732;2022-12-18T10:30:13;100424.47;;;11.75;100.00
8416;BME280;4245;42.120;24.732;2022-12-18T10:32:40;100432.16;;;11.96;100.00
8416;BME280;4245;42.120;24.732;2022-12-18T10:35:14;100444.38;;;12.00;100.00
8416;BME280;4245;42.120;24.732;2022-12-18T10:38:00;100434.81;;;11.96;100.00
8416;BME280;4245;42.120;24.732;2022-12-18T10:40:28;100441.31;;;11.76;100.00
8416;BME280;4245;42.120;24.732;2022-12-18T10:43:13;100441.13;;;11.79;100.00
8416;BME280;4245;42.120;24.732;2022-12-18T10:45:42;100441.38;;;11.74;100.00
8416;BME280;4245;42.120;24.732;2022-12-18T10:48:24;100444.91;;;11.75;100.00
8416;BME280;4245;42.120;24.732;2022-12-18T10:50:51;100445.13;;;11.70;100.00
8416;BME280;4245;42.120;24.732;2022-12-18T10:53:22;100457.47;;;11.71;100.00
8416;BME280;4245;42.120;24.732;2022-12-18T10:55:51;100458.84;;;11.63;100.00
8416;BME280;4245;42.120;24.732;2022-12-18T10:58:23;100459.69;;;11.48;100.00
8416;BME280;4245;42.120;24.732;2022-12-18T11:01:10;100460.75;;;11.45;100.00
8416;BME280;4245;42.120;24.732;2022-12-18T11:03:39;100470.59;;;11.43;100.00
8416;BME280;4245;42.120;24.732;2022-12-18T11:06:09;100463.13;;;11.34;100.00
8416;BME280;4245;42.120;24.732;2022-12-18T11:08:36;100461.91;;;11.24;100.00
8416;BME280;4245;42.120;24.732;2022-12-18T11:11:07;100456.31;;;11.13;100.00
8416;BME280;4245;42.120;24.732;2022-12-18T11:13:51;100471.16;;;11.17;100.00
8416;BME280;4245;42.120;24.732;2022-12-18T11:16:23;100469.06;;;11.06;100.00
8416;BME280;4245;42.120;24.732;2022-12-18T11:18:50;100483.97;;;11.09;100.00
8416;BME280;4245;42.120;24.732;2022-12-18T11:21:17;100486.44;;;11.13;100.00
8416;BME280;4245;42.120;24.732;2022-12-18T11:23:48;100486.81;;;11.06;100.00
8416;BME280;4245;42.120;24.732;2022-12-18T11:26:19;100480.03;;;11.00;100.00
8416;BME280;4245;42.120;24.732;2022-12-18T11:28:50;100483.38;;;11.04;100.00
8416;BME280;4245;42.120;24.732;2022-12-18T11:31:24;100487.94;;;11.02;100.00
8416;BME280;4245;42.120;24.732;2022-12-18T11:34:02;100476.59;;;10.98;100.00
8416;BME280;4245;42.120;24.732;2022-12-18T11:36:34;100483.09;;;10.93;100.00
8416;BME280;4245;42.120;24.732;2022-12-18T11:39:08;100481.16;;;10.79;100.00
8416;BME280;4245;42.120;24.732;2022-12-18T11:41:43;100484.88;;;10.75;100.00
8416;BME280;4245;42.120;24.732;2022-12-18T11:44:35;100479.28;;;10.81;100.00
8416;BME280;4245;42.120;24.732;2022-12-18T11:47:13;100485.38;;;10.83;100.00
8416;BME280;4245;42.120;24.732;2022-12-18T11:49:41;100491.44;;;11.02;100.00
8416;BME280;4245;42.120;24.732;2022-12-18T11:52:16;100488.97;;;10.82;100.00
8416;BME280;4245;42.120;24.732;2022-12-18T11:54:44;100477.78;;;10.93;100.00
8416;BME280;4245;42.120;24.732;2022-12-18T11:57:16;100482.78;;;10.99;100.00
8416;BME280;4245;42.120;24.732;2022-12-18T11:59:59;100493.25;;;11.02;100.00
8416;BME280;4245;42.120;24.732;2022-12-18T12:02:46;100488.38;;;11.10;100.00
8416;BME280;4245;42.120;24.732;2022-12-18T12:05:28;100490.03;;;11.12;100.00
8416;BME280;4245;42.120;24.732;2022-12-18T12:08:01;100492.81;;;11.26;100.00
8416;BME280;4245;42.120;24.732;2022-12-18T12:10:46;100489.28;;;11.26;100.00
8416;BME280;4245;42.120;24.732;2022-12-18T12:13:24;100491.75;;;11.29;100.00
8416;BME280;4245;42.120;24.732;2022-12-18T12:16:09;100489.34;;;11.24;100.00
8416;BME280;4245;42.120;24.732;2022-12-18T12:18:53;100492.56;;;11.31;100.00
8416;BME280;4245;42.120;24.732;2022-12-18T12:21:25;100490.75;;;11.31;100.00
8416;BME280;4245;42.120;24.732;2022-12-18T12:24:01;100491.88;;;11.27;100.00
8416;BME280;4245;42.120;24.732;2022-12-18T12:26:34;100489.00;;;11.15;100.00
8416;BME280;4245;42.120;24.732;2022-12-18T12:29:21;100494.16;;;11.18;100.00
8416;BME280;4245;42.120;24.732;2022-12-18T12:32:06;100498.69;;;11.16;100.00
8416;BME280;4245;42.120;24.732;2022-12-18T12:34:47;100501.53;;;11.28;100.00
8416;BME280;4245;42.120;24.732;2022-12-18T12:37:25;100511.66;;;11.22;100.00
8416;BME280;4245;42.120;24.732;2022-12-18T12:39:56;100519.78;;;11.19;100.00
8416;BME280;4245;42.120;24.732;2022-12-18T12:42:30;100520.91;;;11.15;100.00
8416;BME280;4245;42.120;24.732;2022-12-18T12:45:19;100515.91;;;11.09;100.00
8416;BME280;4245;42.120;24.732;2022-12-18T12:47:48;100526.38;;;11.12;100.00
8416;BME280;4245;42.120;24.732;2022-12-18T12:50:19;100530.16;;;11.08;100.00
8416;BME280;4245;42.120;24.732;2022-12-18T12:52:48;100529.59;;;11.01;100.00
8416;BME280;4245;42.120;24.732;2022-12-18T12:55:19;100535.53;;;11.06;100.00
8416;BME280;4245;42.120;24.732;2022-12-18T12:57:54;100542.28;;;10.96;100.00
8416;BME280;4245;42.120;24.732;2022-12-18T13:00:25;100543.06;;;10.98;100.00
8416;BME280;4245;42.120;24.732;2022-12-18T13:02:58;100544.13;;;10.94;100.00
8416;BME280;4245;42.120;24.732;2022-12-18T13:05:33;100551.19;;;10.95;100.00
8416;BME280;4245;42.120;24.732;2022-12-18T13:08:04;100555.88;;;10.90;100.00
8416;BME280;4245;42.120;24.732;2022-12-18T13:10:34;100559.09;;;10.97;100.00